Time;durP1;ratioP1;P1;durP2;ratioP2;P2;SDS_P1;SDS_P2;PMS_P1;PMS_P2;Temp;Humidity;BMP_temperature;BMP_pressure;BME280_temperature;BME280_humidity;BME280_pressure;Samples;Min_cycle;Max_cycle;Signal;HPM_P1;HPM_P2
2024/01/20 00:02:15;;;;;;;3.90;3.60;;;2.80;99.90;;;;;;5131287;27;20204;-67
2024/01/20 00:04:44;;;;;;;3.60;3.40;;;2.80;99.90;;;;;;5132086;27;20227;-64
2024/01/20 00:07:12;;;;;;;3.90;3.60;;;2.80;99.90;;;;;;5132174;27;20194;-68
2024/01/20 00:09:40;;;;;;;4.10;3.73;;;2.80;99.90;;;;;;5131833;27;20682;-69
2024/01/20 00:12:13;;;;;;;3.43;3.13;;;2.80;99.90;;;;;;5132153;27;20187;-70
2024/01/20 00:14:41;;;;;;;4.03;3.73;;;2.90;99.90;;;;;;5132253;27;20189;-63
2024/01/20 00:17:10;;;;;;;3.43;3.23;;;2.80;99.90;;;;;;5131479;27;20727;-66
2024/01/20 00:19:46;;;;;;;3.63;3.33;;;2.80;99.90;;;;;;5131890;27;20750;-67
2024/01/20 00:22:16;;;;;;;3.97;3.57;;;2.70;99.90;;;;;;5132028;27;20195;-69
2024/01/20 00:24:44;;;;;;;3.77;3.47;;;2.70;99.90;;;;;;5131882;27;20225;-68
2024/01/20 00:27:12;;;;;;;4.07;3.77;;;2.60;99.90;;;;;;5113444;27;20197;-68
2024/01/20 00:29:40;;;;;;;3.57;3.27;;;2.60;99.90;;;;;;5131299;27;20223;-66
2024/01/20 00:32:09;;;;;;;3.57;3.27;;;2.50;99.90;;;;;;5131245;27;20290;-67
2024/01/20 00:34:37;;;;;;;6.07;3.20;;;2.60;99.90;;;;;;5131618;27;20578;-66
2024/01/20 00:37:14;;;;;;;3.57;2.97;;;2.60;99.90;;;;;;5130987;27;20967;-69
2024/01/20 00:39:42;;;;;;;3.97;3.03;;;2.70;99.90;;;;;;5131063;27;20285;-66
2024/01/20 00:42:11;;;;;;;3.63;3.13;;;2.70;99.90;;;;;;5130767;27;20185;-66
2024/01/20 00:44:41;;;;;;;5.40;3.20;;;2.70;99.90;;;;;;5129852;27;20278;-69
2024/01/20 00:47:09;;;;;;;3.27;3.07;;;2.60;99.90;;;;;;5130781;27;20190;-69
2024/01/20 00:49:37;;;;;;;3.60;3.30;;;2.70;99.90;;;;;;5131114;27;20201;-73
2024/01/20 00:52:06;;;;;;;4.60;3.97;;;2.80;99.90;;;;;;5130503;27;20729;-69
2024/01/20 00:54:36;;;;;;;3.10;2.80;;;2.60;99.90;;;;;;5130362;27;20210;-73
2024/01/20 00:57:05;;;;;;;3.20;2.90;;;2.70;99.90;;;;;;5130650;27;20225;-64
2024/01/20 00:59:33;;;;;;;3.23;3.00;;;2.60;99.90;;;;;;5130593;27;20213;-69
2024/01/20 01:02:02;;;;;;;3.47;3.27;;;2.70;99.90;;;;;;5130066;27;20203;-71
2024/01/20 01:04:30;;;;;;;2.90;2.70;;;2.60;99.90;;;;;;5130229;27;20217;-66
2024/01/20 01:06:58;;;;;;;3.57;3.30;;;2.60;99.90;;;;;;5126594;27;20659;-64
2024/01/20 01:09:27;;;;;;;3.20;3.00;;;2.60;99.90;;;;;;5109800;28;20611;-62
2024/01/20 01:11:57;;;;;;;3.23;3.03;;;2.60;99.90;;;;;;5120219;27;20201;-71
2024/01/20 01:14:25;;;;;;;3.33;3.13;;;2.80;99.90;;;;;;5130664;27;20726;-71
2024/01/20 01:16:54;;;;;;;3.23;3.03;;;2.80;99.90;;;;;;5130285;27;20201;-69
2024/01/20 01:19:23;;;;;;;3.30;3.10;;;2.80;99.90;;;;;;5130643;27;20214;-70
2024/01/20 01:21:51;;;;;;;2.93;2.73;;;2.80;99.90;;;;;;5129711;27;20191;-65
2024/01/20 01:24:19;;;;;;;3.63;3.07;;;2.70;99.90;;;;;;5130295;27;20204;-65
2024/01/20 01:26:48;;;;;;;3.60;3.30;;;2.70;99.90;;;;;;5129972;27;20222;-66
2024/01/20 01:29:17;;;;;;;3.40;3.10;;;2.70;99.90;;;;;;5130422;27;20572;-65
2024/01/20 01:31:46;;;;;;;3.37;3.07;;;2.80;99.90;;;;;;5129944;27;20212;-66
2024/01/20 01:34:14;;;;;;;3.57;3.27;;;2.80;99.90;;;;;;5130212;27;20235;-65
2024/01/20 01:36:42;;;;;;;3.17;2.97;;;2.90;99.90;;;;;;5129697;27;20194;-70
2024/01/20 01:39:11;;;;;;;3.07;2.87;;;2.90;99.90;;;;;;5129643;27;20290;-68
2024/01/20 01:41:39;;;;;;;3.40;3.10;;;3.00;99.90;;;;;;5129527;27;20197;-68
2024/01/20 01:44:07;;;;;;;3.30;3.00;;;3.00;99.90;;;;;;5129797;27;20268;-71
2024/01/20 01:46:37;;;;;;;3.47;2.73;;;3.00;99.90;;;;;;5129765;27;20228;-67
2024/01/20 01:49:07;;;;;;;3.07;2.87;;;2.90;99.90;;;;;;5130061;27;20925;-67
2024/01/20 01:51:35;;;;;;;2.93;2.60;;;2.80;99.90;;;;;;5129307;27;20562;-66
2024/01/20 01:54:05;;;;;;;3.17;2.93;;;2.80;99.90;;;;;;5129518;27;20192;-64
2024/01/20 01:56:33;;;;;;;2.70;2.50;;;2.70;99.90;;;;;;5128533;27;20191;-63
2024/01/20 01:59:02;;;;;;;3.00;2.80;;;2.60;99.90;;;;;;5129423;27;20195;-64
2024/01/20 02:01:30;;;;;;;3.27;2.97;;;2.70;99.90;;;;;;5129279;27;20223;-65
2024/01/20 02:04:00;;;;;;;2.60;2.50;;;2.70;99.90;;;;;;5130075;27;20206;-68
2024/01/20 02:06:29;;;;;;;3.70;3.40;;;2.80;99.90;;;;;;5131068;27;20252;-67
2024/01/20 02:08:57;;;;;;;2.97;2.77;;;2.80;99.90;;;;;;5130461;27;20569;-70
2024/01/20 02:11:27;;;;;;;2.80;2.60;;;2.80;99.90;;;;;;5130313;27;20284;-67
2024/01/20 02:13:56;;;;;;;3.60;2.40;;;2.80;99.90;;;;;;5130566;27;20296;-63
2024/01/20 02:16:24;;;;;;;3.60;3.03;;;2.80;99.90;;;;;;5130266;27;20200;-64
2024/01/20 02:18:52;;;;;;;2.97;2.77;;;2.90;99.90;;;;;;5130168;27;20656;-67
2024/01/20 02:21:22;;;;;;;3.23;3.03;;;2.90;99.90;;;;;;5130074;27;20216;-68
2024/01/20 02:23:52;;;;;;;2.90;2.60;;;2.90;99.90;;;;;;5130234;27;20191;-64
2024/01/20 02:26:21;;;;;;;2.60;2.47;;;2.80;99.90;;;;;;5129887;27;20346;-67
2024/01/20 02:28:50;;;;;;;2.97;2.40;;;2.70;99.90;;;;;;5130135;27;20199;-63
2024/01/20 02:31:18;;;;;;;2.50;2.30;;;2.80;99.90;;;;;;5130084;27;20212;-65
2024/01/20 02:33:46;;;;;;;2.60;2.40;;;2.70;99.90;;;;;;5129920;27;20225;-68
2024/01/20 02:36:15;;;;;;;2.67;2.47;;;2.70;99.90;;;;;;5129896;27;20197;-70
2024/01/20 02:38:43;;;;;;;4.43;2.73;;;2.80;99.90;;;;;;5129590;27;20270;-69
2024/01/20 02:41:13;;;;;;;2.50;2.30;;;2.90;99.90;;;;;;5130074;27;20923;-66
2024/01/20 02:43:41;;;;;;;2.87;2.67;;;2.90;99.90;;;;;;5130259;27;20184;-65
2024/01/20 02:46:10;;;;;;;2.57;2.27;;;2.90;99.90;;;;;;5129795;27;20220;-68
2024/01/20 02:48:38;;;;;;;2.77;2.57;;;2.90;99.90;;;;;;5111272;27;20564;-62
2024/01/20 02:51:07;;;;;;;2.10;2.00;;;2.90;99.90;;;;;;5129721;27;20200;-67
2024/01/20 02:53:35;;;;;;;2.00;1.90;;;2.90;99.90;;;;;;5130025;27;20284;-68
2024/01/20 02:56:04;;;;;;;2.33;2.13;;;2.90;99.90;;;;;;5129916;28;20189;-65
2024/01/20 02:58:34;;;;;;;2.27;2.07;;;2.70;99.90;;;;;;5129939;28;20670;-65
2024/01/20 03:01:02;;;;;;;2.20;2.10;;;2.80;99.90;;;;;;5129808;28;20185;-69
2024/01/20 03:03:30;;;;;;;2.00;1.90;;;2.80;99.90;;;;;;5129759;28;20203;-64
2024/01/20 03:05:59;;;;;;;2.10;2.00;;;3.00;99.90;;;;;;5129548;28;20640;-65
2024/01/20 03:08:27;;;;;;;2.43;2.33;;;2.90;99.90;;;;;;5132168;27;20562;-63
2024/01/20 03:10:56;;;;;;;2.40;2.20;;;2.80;99.90;;;;;;5133827;27;20202;-68
2024/01/20 03:13:24;;;;;;;2.20;2.10;;;2.80;99.90;;;;;;5133794;27;20188;-67
2024/01/20 03:15:54;;;;;;;2.60;2.40;;;2.60;99.90;;;;;;5133645;27;20544;-65
2024/01/20 03:18:22;;;;;;;2.40;2.20;;;2.60;99.90;;;;;;5133769;27;20305;-63
2024/01/20 03:20:50;;;;;;;2.10;2.00;;;2.60;99.90;;;;;;5133620;27;20241;-68
2024/01/20 03:23:19;;;;;;;2.30;2.20;;;2.50;99.90;;;;;;5133275;27;20281;-70
2024/01/20 03:25:47;;;;;;;2.50;2.37;;;2.60;99.90;;;;;;5133285;27;20264;-68
2024/01/20 03:28:16;;;;;;;2.40;2.20;;;2.50;99.90;;;;;;5133573;27;20224;-65
2024/01/20 03:30:44;;;;;;;2.17;2.07;;;2.50;99.90;;;;;;5133413;27;20841;-67
2024/01/20 03:33:14;;;;;;;2.00;1.90;;;2.50;99.90;;;;;;5133496;27;20209;-66
2024/01/20 03:35:43;;;;;;;3.00;2.40;;;2.40;99.90;;;;;;5133300;27;20273;-69
2024/01/20 03:38:12;;;;;;;2.30;2.20;;;2.50;99.90;;;;;;5133205;27;20279;-64
2024/01/20 03:40:43;;;;;;;2.53;2.33;;;2.60;99.90;;;;;;5133246;27;20198;-67
2024/01/20 03:43:11;;;;;;;3.57;3.17;;;2.50;99.90;;;;;;5133321;27;20193;-63
2024/01/20 03:45:41;;;;;;;3.87;2.90;;;2.60;99.90;;;;;;5133309;27;20191;-65
2024/01/20 03:48:09;;;;;;;7.50;3.50;;;2.40;99.90;;;;;;5133217;27;20233;-65
2024/01/20 03:50:39;;;;;;;3.73;3.37;;;2.50;99.90;;;;;;5133028;27;20670;-62
2024/01/20 03:53:08;;;;;;;5.00;3.67;;;2.50;99.90;;;;;;5132997;27;20214;-64
2024/01/20 03:55:36;;;;;;;5.00;3.80;;;2.60;99.90;;;;;;5132862;27;20206;-69
2024/01/20 03:58:04;;;;;;;7.93;4.73;;;2.50;99.90;;;;;;5132766;27;20621;-65
2024/01/20 04:00:33;;;;;;;4.07;3.67;;;2.60;99.90;;;;;;5133032;27;20208;-70
2024/01/20 04:03:02;;;;;;;8.53;4.13;;;2.50;99.90;;;;;;5132790;27;20275;-71
2024/01/20 04:05:31;;;;;;;6.43;3.90;;;2.60;99.90;;;;;;5132625;27;20206;-64
2024/01/20 04:08:01;;;;;;;10.63;4.80;;;2.60;99.90;;;;;;5132392;27;20240;-65
2024/01/20 04:10:29;;;;;;;9.00;4.93;;;2.60;99.90;;;;;;5132174;27;20204;-64
2024/01/20 04:12:57;;;;;;;7.97;4.00;;;2.70;99.90;;;;;;5132632;27;20703;-65
2024/01/20 04:15:26;;;;;;;8.73;5.00;;;2.80;99.90;;;;;;5132578;27;20551;-68
2024/01/20 04:17:54;;;;;;;7.70;4.37;;;2.80;99.90;;;;;;5132248;27;20196;-70
2024/01/20 04:20:22;;;;;;;12.87;4.80;;;2.70;99.90;;;;;;5131051;27;20931;-70
2024/01/20 04:22:51;;;;;;;12.13;4.73;;;2.70;99.90;;;;;;5132015;27;20674;-69
2024/01/20 04:25:21;;;;;;;9.93;4.80;;;2.80;99.90;;;;;;5132041;27;20199;-66
2024/01/20 04:27:49;;;;;;;7.60;4.53;;;2.80;99.90;;;;;;5132121;27;20227;-67
2024/01/20 04:30:17;;;;;;;9.40;4.50;;;2.80;99.90;;;;;;5132288;27;20394;-67
2024/01/20 04:32:46;;;;;;;10.73;4.60;;;2.80;99.90;;;;;;5132042;27;20742;-66
2024/01/20 04:35:14;;;;;;;13.30;5.43;;;2.90;99.90;;;;;;5132018;27;20196;-64
2024/01/20 04:37:43;;;;;;;10.80;3.97;;;2.90;99.90;;;;;;5131745;27;20795;-65
2024/01/20 04:40:12;;;;;;;6.70;4.13;;;2.90;99.90;;;;;;5131852;27;20300;-67
2024/01/20 04:42:42;;;;;;;8.97;4.63;;;2.90;99.90;;;;;;5131651;27;20193;-66
2024/01/20 04:45:13;;;;;;;8.37;4.70;;;3.00;99.90;;;;;;5132001;27;20209;-66
2024/01/20 04:47:41;;;;;;;10.33;4.43;;;3.00;99.90;;;;;;5131724;27;21061;-68
2024/01/20 04:50:10;;;;;;;7.30;4.57;;;3.00;99.90;;;;;;5132060;27;20193;-66
2024/01/20 04:52:38;;;;;;;6.83;4.47;;;3.00;99.90;;;;;;5131738;27;20305;-69
2024/01/20 04:55:07;;;;;;;13.80;4.63;;;3.00;99.90;;;;;;5131961;27;20274;-67
2024/01/20 04:57:36;;;;;;;7.70;4.17;;;2.90;99.90;;;;;;5131829;27;20652;-69
2024/01/20 05:00:08;;;;;;;9.20;4.80;;;3.00;99.90;;;;;;5131794;27;20195;-68
2024/01/20 05:02:36;;;;;;;8.03;4.57;;;3.00;99.90;;;;;;5131820;27;20608;-71
2024/01/20 05:05:05;;;;;;;12.23;5.20;;;3.00;99.90;;;;;;5131553;27;20249;-71
2024/01/20 05:07:34;;;;;;;8.97;4.83;;;3.00;99.90;;;;;;5131339;27;20226;-65
2024/01/20 05:10:02;;;;;;;8.23;5.07;;;3.00;99.90;;;;;;5131233;27;20194;-68
2024/01/20 05:12:31;;;;;;;9.27;4.90;;;3.00;99.90;;;;;;5130999;27;20204;-68
2024/01/20 05:14:59;;;;;;;11.00;4.93;;;3.00;99.90;;;;;;5131512;27;20682;-68
2024/01/20 05:17:29;;;;;;;12.33;5.77;;;3.10;99.90;;;;;;5131257;27;20219;-67
2024/01/20 05:19:57;;;;;;;9.57;4.50;;;3.10;99.90;;;;;;5131249;27;20212;-64
2024/01/20 05:22:26;;;;;;;10.73;5.30;;;3.10;99.90;;;;;;5131191;27;20203;-70
2024/01/20 05:24:54;;;;;;;10.20;5.03;;;3.10;99.90;;;;;;5131123;27;20200;-66
2024/01/20 05:27:22;;;;;;;12.53;5.40;;;3.10;99.90;;;;;;5112103;27;20753;-67
2024/01/20 05:29:51;;;;;;;5.87;5.00;;;3.10;99.90;;;;;;5130813;27;20262;-67
2024/01/20 05:32:19;;;;;;;11.23;5.47;;;3.20;99.90;;;;;;5130810;27;20202;-70
2024/01/20 05:34:49;;;;;;;13.93;6.17;;;3.20;99.90;;;;;;5131153;27;20188;-64
2024/01/20 05:37:17;;;;;;;11.73;5.63;;;3.20;99.90;;;;;;5130661;27;20312;-64
2024/01/20 05:39:46;;;;;;;10.97;5.23;;;3.20;99.90;;;;;;5130794;27;20197;-71
2024/01/20 05:42:14;;;;;;;16.37;5.00;;;3.30;99.90;;;;;;5130641;27;20564;-65
2024/01/20 05:44:43;;;;;;;12.53;6.03;;;3.20;99.90;;;;;;5130825;27;20664;-66
2024/01/20 05:47:11;;;;;;;12.17;4.27;;;3.30;99.90;;;;;;5130492;27;20232;-65
2024/01/20 05:49:40;;;;;;;11.03;5.07;;;3.20;99.90;;;;;;5130627;27;20730;-67
2024/01/20 05:52:10;;;;;;;9.47;5.73;;;3.20;99.90;;;;;;5130484;27;20188;-63
2024/01/20 05:54:38;;;;;;;8.00;5.30;;;3.20;99.90;;;;;;5130588;27;20221;-67
2024/01/20 05:57:07;;;;;;;10.93;5.50;;;3.20;99.90;;;;;;5130283;27;20277;-67
2024/01/20 05:59:35;;;;;;;9.83;5.17;;;3.20;99.90;;;;;;5130342;27;20195;-62
2024/01/20 06:02:03;;;;;;;12.37;5.40;;;3.30;99.90;;;;;;5130312;27;20295;-69
2024/01/20 06:04:32;;;;;;;10.37;5.93;;;3.20;99.90;;;;;;5130410;27;20662;-66
2024/01/20 06:07:00;;;;;;;12.73;5.93;;;3.30;99.90;;;;;;5130173;27;20193;-68
2024/01/20 06:09:30;;;;;;;8.97;5.30;;;3.20;99.90;;;;;;5130000;27;20200;-63
2024/01/20 06:11:59;;;;;;;7.43;5.53;;;3.20;99.90;;;;;;5130100;27;20659;-67
2024/01/20 06:14:27;;;;;;;12.53;5.00;;;3.20;99.90;;;;;;5130292;27;20206;-71
2024/01/20 06:16:55;;;;;;;13.93;6.90;;;3.20;99.90;;;;;;5130300;27;20190;-67
2024/01/20 06:19:24;;;;;;;12.40;5.23;;;3.20;99.90;;;;;;5130163;27;20197;-71
2024/01/20 06:21:52;;;;;;;13.93;5.97;;;3.20;99.90;;;;;;5130082;27;20252;-66
2024/01/20 06:24:20;;;;;;;11.10;7.07;;;3.30;99.90;;;;;;5130202;27;20663;-66
2024/01/20 06:26:50;;;;;;;9.87;5.90;;;3.30;99.90;;;;;;5129829;27;20709;-68
2024/01/20 06:29:19;;;;;;;11.03;4.87;;;3.30;99.90;;;;;;5129781;27;20725;-71
2024/01/20 06:31:47;;;;;;;17.83;4.93;;;3.30;99.90;;;;;;5130206;27;20280;-66
2024/01/20 06:34:15;;;;;;;14.53;5.33;;;3.30;99.90;;;;;;5130125;27;20207;-69
2024/01/20 06:36:44;;;;;;;10.30;5.37;;;3.30;99.90;;;;;;5130054;27;20199;-71
2024/01/20 06:39:12;;;;;;;11.00;4.67;;;3.30;99.90;;;;;;5129747;27;20256;-67
2024/01/20 06:41:45;;;;;;;10.07;4.80;;;3.30;99.90;;;;;;5129624;27;20671;-68
2024/01/20 06:44:14;;;;;;;12.63;5.80;;;3.30;99.90;;;;;;5129825;27;20195;-63
2024/01/20 06:46:44;;;;;;;11.03;5.37;;;3.40;99.90;;;;;;5129868;27;20202;-69
2024/01/20 06:49:12;;;;;;;8.73;5.13;;;3.50;99.90;;;;;;5129843;27;20216;-65
2024/01/20 06:51:42;;;;;;;13.23;6.17;;;3.60;99.90;;;;;;5129715;27;20218;-69
2024/01/20 06:54:10;;;;;;;16.80;5.10;;;3.50;99.90;;;;;;5129455;27;20283;-69
2024/01/20 06:56:39;;;;;;;8.83;4.73;;;3.50;99.90;;;;;;5129648;27;20194;-64
2024/01/20 06:59:07;;;;;;;8.17;5.23;;;3.50;99.90;;;;;;5129497;28;20198;-68
2024/01/20 07:01:37;;;;;;;9.00;5.50;;;3.50;99.90;;;;;;5129513;28;20198;-66
2024/01/20 07:04:06;;;;;;;12.63;5.07;;;3.50;99.90;;;;;;5129313;28;20194;-68
2024/01/20 07:06:34;;;;;;;12.10;4.90;;;3.50;99.90;;;;;;5129492;28;20239;-65
2024/01/20 07:09:05;;;;;;;14.27;4.70;;;3.40;99.90;;;;;;5129257;28;20224;-62
2024/01/20 07:11:34;;;;;;;8.70;5.13;;;3.50;99.90;;;;;;5129625;28;20206;-65
2024/01/20 07:14:02;;;;;;;10.43;4.30;;;3.50;99.90;;;;;;5129376;28;20659;-63
2024/01/20 07:16:30;;;;;;;14.47;5.27;;;3.40;99.90;;;;;;5129401;28;20201;-69
2024/01/20 07:19:00;;;;;;;9.97;4.63;;;3.40;99.90;;;;;;5129376;28;20202;-72
2024/01/20 07:21:29;;;;;;;8.57;5.27;;;3.40;99.90;;;;;;5129305;28;20193;-68
2024/01/20 07:23:57;;;;;;;12.90;4.77;;;3.40;99.90;;;;;;5129603;28;20198;-72
2024/01/20 07:26:25;;;;;;;13.27;5.43;;;3.50;99.90;;;;;;5129602;28;20211;-72
2024/01/20 07:28:54;;;;;;;13.53;4.97;;;3.40;99.90;;;;;;5129005;28;20227;-68
2024/01/20 07:31:23;;;;;;;11.63;5.30;;;3.50;99.90;;;;;;5129533;28;20201;-65
2024/01/20 07:33:51;;;;;;;8.73;4.67;;;3.40;99.90;;;;;;5129520;28;20193;-68
2024/01/20 07:36:21;;;;;;;9.00;4.37;;;3.30;99.90;;;;;;5129516;28;20555;-65
2024/01/20 07:38:49;;;;;;;11.40;5.30;;;3.40;99.90;;;;;;5128931;28;20323;-62
2024/01/20 07:41:18;;;;;;;8.30;5.03;;;3.40;99.90;;;;;;5129406;28;20731;-65
2024/01/20 07:43:47;;;;;;;12.60;6.03;;;3.50;99.90;;;;;;5129185;28;20318;-68
2024/01/20 07:46:15;;;;;;;11.83;5.67;;;3.50;99.90;;;;;;5129078;28;20195;-62
2024/01/20 07:48:43;;;;;;;11.07;5.30;;;3.40;99.90;;;;;;5129177;28;20247;-63
2024/01/20 07:51:12;;;;;;;14.87;5.47;;;3.50;99.90;;;;;;5129071;28;20813;-70
2024/01/20 07:53:42;;;;;;;11.97;5.60;;;3.60;99.90;;;;;;5130121;27;20187;-63
2024/01/20 07:56:11;;;;;;;11.30;5.37;;;3.50;99.90;;;;;;5132884;27;20193;-61
2024/01/20 07:58:39;;;;;;;8.70;5.00;;;3.50;99.90;;;;;;5132666;27;20200;-64
2024/01/20 08:01:09;;;;;;;10.57;5.07;;;3.40;99.90;;;;;;5133093;27;20202;-69
2024/01/20 08:03:37;;;;;;;11.83;4.73;;;3.30;99.90;;;;;;5132935;27;20197;-64
2024/01/20 08:06:06;;;;;;;7.10;4.47;;;3.30;99.90;;;;;;5132947;27;20187;-66
2024/01/20 08:08:35;;;;;;;8.57;4.77;;;3.30;99.90;;;;;;5132552;27;20248;-64
2024/01/20 08:11:04;;;;;;;7.97;4.83;;;3.30;99.90;;;;;;5132631;27;20197;-63
2024/01/20 08:13:33;;;;;;;6.07;4.87;;;3.40;99.90;;;;;;5132651;27;20772;-60
2024/01/20 08:16:01;;;;;;;7.90;4.63;;;3.40;99.90;;;;;;5132679;27;20658;-68
2024/01/20 08:18:30;;;;;;;7.87;4.50;;;3.40;99.90;;;;;;5132897;27;20195;-61
2024/01/20 08:20:58;;;;;;;5.53;4.57;;;3.20;99.90;;;;;;5132743;27;20187;-62
2024/01/20 08:23:26;;;;;;;7.10;4.57;;;3.30;99.90;;;;;;5132423;27;20286;-67
2024/01/20 08:25:55;;;;;;;7.20;4.20;;;3.30;99.90;;;;;;5132468;27;20218;-71
2024/01/20 08:28:25;;;;;;;8.30;4.83;;;3.20;99.90;;;;;;5132353;27;20183;-68
2024/01/20 08:30:53;;;;;;;7.33;4.67;;;3.20;99.90;;;;;;5132013;27;20195;-68
2024/01/20 08:33:21;;;;;;;6.33;4.00;;;3.10;99.90;;;;;;5132270;27;20201;-66
2024/01/20 08:35:50;;;;;;;5.67;4.10;;;3.00;99.90;;;;;;5131992;27;20189;-63
2024/01/20 08:38:19;;;;;;;4.93;3.63;;;3.00;99.90;;;;;;5131823;27;20224;-63
2024/01/20 08:40:47;;;;;;;7.40;4.20;;;3.00;99.90;;;;;;5131926;27;20660;-65
2024/01/20 08:43:16;;;;;;;5.53;3.97;;;3.10;99.90;;;;;;5131728;27;20206;-67
2024/01/20 08:45:46;;;;;;;5.23;4.00;;;2.90;99.90;;;;;;5131945;27;20185;-64
2024/01/20 08:48:14;;;;;;;4.73;3.80;;;2.90;99.90;;;;;;5132017;27;20196;-68
2024/01/20 08:50:43;;;;;;;6.47;4.23;;;2.90;99.90;;;;;;5131813;27;20221;-68
2024/01/20 08:53:11;;;;;;;6.27;3.93;;;3.00;99.90;;;;;;5131874;27;20197;-65
2024/01/20 08:55:40;;;;;;;4.93;4.10;;;2.90;99.90;;;;;;5113282;27;20619;-61
2024/01/20 08:58:08;;;;;;;4.73;3.73;;;2.80;99.90;;;;;;5131521;27;20206;-67
2024/01/20 09:00:37;;;;;;;5.63;4.10;;;2.80;99.90;;;;;;5131542;27;20210;-69
2024/01/20 09:03:07;;;;;;;4.43;4.03;;;2.90;99.90;;;;;;5131717;27;20263;-65
2024/01/20 09:05:35;;;;;;;5.80;4.77;;;2.90;99.90;;;;;;5130917;27;20254;-75
2024/01/20 09:08:07;;;;;;;9.03;4.57;;;2.80;99.90;;;;;;5131585;27;20193;-70
2024/01/20 09:10:36;;;;;;;5.57;4.17;;;2.70;99.90;;;;;;5131480;27;20223;-66
2024/01/20 09:13:05;;;;;;;6.93;5.40;;;2.70;99.90;;;;;;5131402;27;20220;-68
2024/01/20 09:15:33;;;;;;;4.30;3.60;;;2.80;99.90;;;;;;5131258;27;20209;-62
2024/01/20 09:18:01;;;;;;;7.27;5.00;;;2.80;99.90;;;;;;5131350;27;20201;-64
2024/01/20 09:20:31;;;;;;;6.63;4.63;;;2.80;99.90;;;;;;5131060;27;20663;-65
2024/01/20 09:23:00;;;;;;;8.57;4.60;;;2.70;99.90;;;;;;5131290;27;20190;-64
2024/01/20 09:25:29;;;;;;;6.33;4.57;;;2.60;99.90;;;;;;5131062;27;20188;-65
2024/01/20 09:27:57;;;;;;;6.37;4.70;;;2.60;99.90;;;;;;5130969;27;20251;-64
2024/01/20 09:30:25;;;;;;;5.90;4.40;;;2.70;99.90;;;;;;5111584;27;20587;-67
2024/01/20 09:32:54;;;;;;;7.07;5.00;;;2.70;99.90;;;;;;5131158;27;20318;-67
2024/01/20 09:35:25;;;;;;;7.07;4.97;;;2.70;99.90;;;;;;5131136;27;20198;-68
2024/01/20 09:37:55;;;;;;;7.80;5.17;;;2.80;99.90;;;;;;5130823;27;20237;-67
2024/01/20 09:40:23;;;;;;;6.80;4.80;;;2.70;99.90;;;;;;5131113;27;20202;-65
2024/01/20 09:42:53;;;;;;;6.03;5.30;;;2.70;99.90;;;;;;5131107;27;20192;-64
2024/01/20 09:45:24;;;;;;;6.87;5.20;;;2.70;99.90;;;;;;5130806;27;20191;-68
2024/01/20 09:47:52;;;;;;;7.10;4.60;;;2.70;99.90;;;;;;5130832;27;20245;-67
2024/01/20 09:50:21;;;;;;;7.80;5.27;;;2.60;99.90;;;;;;5130994;27;20222;-69
2024/01/20 09:52:57;;;;;;;4.40;3.97;;;2.70;99.90;;;;;;5130958;27;20216;-63
2024/01/20 09:55:27;;;;;;;9.37;4.87;;;2.60;99.90;;;;;;5130963;27;20200;-68
2024/01/20 09:57:58;;;;;;;5.53;4.70;;;2.60;99.90;;;;;;5130879;27;20671;-62
2024/01/20 10:00:26;;;;;;;5.60;5.07;;;2.60;99.90;;;;;;5130865;27;20215;-66
2024/01/20 10:02:55;;;;;;;5.73;4.90;;;2.60;99.90;;;;;;5112375;27;20206;-62
2024/01/20 10:05:25;;;;;;;7.07;4.83;;;2.60;99.90;;;;;;5130762;27;20250;-67
2024/01/20 10:07:53;;;;;;;8.93;6.53;;;2.60;99.90;;;;;;5130480;27;20190;-71
2024/01/20 10:10:23;;;;;;;7.07;5.47;;;2.60;99.90;;;;;;5130289;27;20561;-68
2024/01/20 10:12:52;;;;;;;8.30;5.60;;;2.60;99.90;;;;;;5130256;27;20198;-66
2024/01/20 10:15:22;;;;;;;8.07;5.10;;;2.60;99.90;;;;;;5130224;27;20202;-66
2024/01/20 10:17:51;;;;;;;7.23;5.23;;;2.60;99.90;;;;;;5129349;27;20209;-61
2024/01/20 10:20:21;;;;;;;8.93;5.43;;;2.60;99.90;;;;;;5130242;27;20192;-64
2024/01/20 10:22:49;;;;;;;5.70;5.10;;;2.70;99.90;;;;;;5130295;27;20199;-61
2024/01/20 10:25:19;;;;;;;6.93;5.73;;;2.70;99.90;;;;;;5130334;27;20193;-70
2024/01/20 10:27:51;;;;;;;5.73;5.07;;;2.70;99.90;;;;;;5130093;27;20571;-65
2024/01/20 10:30:20;;;;;;;7.40;4.80;;;2.70;99.90;;;;;;5129797;27;20216;-67
2024/01/20 10:32:49;;;;;;;6.57;5.37;;;2.60;99.90;;;;;;5129909;27;20241;-61
2024/01/20 10:35:25;;;;;;;5.27;4.73;;;2.70;99.90;;;;;;5129922;27;20208;-65
2024/01/20 10:38:00;;;;;;;4.83;4.30;;;2.80;99.90;;;;;;5129798;27;20233;-64
2024/01/20 10:40:28;;;;;;;5.63;4.60;;;2.90;99.90;;;;;;5130008;27;20786;-65
2024/01/20 10:43:05;;;;;;;16.83;9.63;;;2.90;99.90;;;;;;5129921;27;20273;-64
2024/01/20 10:45:41;;;;;;;8.83;6.07;;;2.90;99.90;;;;;;5129789;27;20191;-64
2024/01/20 10:48:16;;;;;;;6.33;4.87;;;3.00;99.90;;;;;;5130116;27;20613;-66
2024/01/20 10:50:47;;;;;;;3.90;3.50;;;3.00;99.90;;;;;;5130187;27;20272;-67
2024/01/20 10:53:15;;;;;;;4.87;4.37;;;2.90;99.90;;;;;;5129960;27;20616;-67
2024/01/20 10:55:45;;;;;;;4.77;4.07;;;2.80;99.90;;;;;;5129750;27;20205;-64
2024/01/20 10:58:18;;;;;;;6.00;4.50;;;2.90;99.90;;;;;;5129659;27;20200;-65
2024/01/20 11:00:47;;;;;;;6.47;4.93;;;3.00;99.90;;;;;;5129826;27;20222;-66
2024/01/20 11:03:17;;;;;;;6.47;5.27;;;3.00;99.90;;;;;;5129708;28;20699;-66
2024/01/20 11:05:47;;;;;;;7.60;5.07;;;3.00;99.90;;;;;;5129637;28;20193;-64
2024/01/20 11:08:24;;;;;;;7.37;4.67;;;3.10;99.90;;;;;;5128060;28;20221;-67
2024/01/20 11:10:54;;;;;;;5.03;4.33;;;3.10;99.90;;;;;;5130114;28;20617;-65
2024/01/20 11:13:27;;;;;;;5.60;4.20;;;2.90;99.90;;;;;;5129634;28;20210;-62
2024/01/20 11:15:57;;;;;;;6.47;4.27;;;3.00;99.90;;;;;;5129204;28;20194;-64
2024/01/20 11:18:26;;;;;;;4.47;3.37;;;3.00;99.90;;;;;;5129295;28;20213;-64
2024/01/20 11:20:57;;;;;;;4.57;3.27;;;3.10;99.90;;;;;;5129216;28;20186;-68
2024/01/20 11:23:26;;;;;;;7.07;3.93;;;3.20;99.90;;;;;;5129433;28;20198;-66
2024/01/20 11:25:55;;;;;;;8.13;5.17;;;3.20;99.90;;;;;;5129343;28;20280;-67
2024/01/20 11:28:26;;;;;;;5.83;4.20;;;3.20;99.90;;;;;;5130109;27;20204;-68
2024/01/20 11:30:54;;;;;;;7.50;4.40;;;3.30;99.90;;;;;;5121056;27;20243;-63
2024/01/20 11:33:24;;;;;;;6.00;3.27;;;3.40;99.90;;;;;;5134106;27;20191;-64
2024/01/20 11:35:53;;;;;;;5.87;3.17;;;3.40;99.90;;;;;;5133601;27;20206;-66
2024/01/20 11:38:22;;;;;;;10.13;5.00;;;3.40;99.90;;;;;;5133427;27;20966;-67
2024/01/20 11:41:00;;;;;;;8.87;3.87;;;3.40;99.90;;;;;;5133510;27;20199;-65
2024/01/20 11:43:30;;;;;;;7.63;3.43;;;3.50;99.90;;;;;;5133391;27;20284;-69
2024/01/20 11:45:59;;;;;;;5.70;3.33;;;3.50;99.90;;;;;;5133352;27;20196;-67
2024/01/20 11:48:27;;;;;;;8.93;4.30;;;3.50;99.90;;;;;;5133597;27;20273;-68
2024/01/20 11:50:55;;;;;;;9.97;4.73;;;3.60;99.90;;;;;;5133356;27;20219;-66
2024/01/20 11:53:24;;;;;;;10.03;3.97;;;3.70;99.90;;;;;;5133614;27;20197;-61
2024/01/20 11:55:54;;;;;;;10.47;4.67;;;3.60;99.90;;;;;;5133502;27;20205;-63
2024/01/20 11:58:23;;;;;;;6.63;3.87;;;3.60;99.90;;;;;;5132546;27;20201;-63
2024/01/20 12:00:54;;;;;;;8.13;3.80;;;3.60;99.90;;;;;;5133068;27;20201;-65
2024/01/20 12:03:23;;;;;;;7.80;5.63;;;3.70;99.90;;;;;;5133166;27;20326;-65
2024/01/20 12:05:51;;;;;;;7.03;3.77;;;3.80;99.90;;;;;;5133073;27;20734;-64
2024/01/20 12:08:21;;;;;;;8.87;3.57;;;3.70;99.90;;;;;;5132659;27;20274;-62
2024/01/20 12:10:50;;;;;;;5.67;3.67;;;3.80;99.90;;;;;;5133082;27;20240;-63
2024/01/20 12:13:18;;;;;;;5.17;3.30;;;3.80;99.90;;;;;;5132516;27;20277;-64
2024/01/20 12:15:49;;;;;;;7.23;3.80;;;3.70;99.90;;;;;;5132691;27;20202;-62
2024/01/20 12:18:19;;;;;;;6.67;4.07;;;3.70;99.90;;;;;;5132787;27;20226;-68
2024/01/20 12:20:48;;;;;;;13.97;5.37;;;3.80;99.90;;;;;;5133036;27;20581;-66
2024/01/20 12:23:20;;;;;;;8.03;4.47;;;3.90;99.90;;;;;;5132859;27;20252;-67
2024/01/20 12:25:52;;;;;;;11.07;5.17;;;4.00;99.90;;;;;;5132617;27;20884;-67
2024/01/20 12:28:21;;;;;;;7.13;3.83;;;4.00;99.90;;;;;;5132125;27;20193;-62
2024/01/20 12:30:50;;;;;;;7.57;4.70;;;4.10;99.90;;;;;;5132650;27;20210;-65
2024/01/20 12:33:18;;;;;;;9.43;5.27;;;4.10;99.90;;;;;;5132945;27;20667;-64
2024/01/20 12:35:47;;;;;;;16.20;7.30;;;4.20;99.90;;;;;;5132907;27;20259;-64
2024/01/20 12:38:16;;;;;;;12.27;5.10;;;4.20;99.90;;;;;;5132168;27;20227;-65
2024/01/20 12:40:44;;;;;;;9.07;4.67;;;4.20;99.90;;;;;;5131451;27;20201;-66
2024/01/20 12:43:13;;;;;;;10.57;4.77;;;4.20;99.90;;;;;;5132358;27;20193;-64
2024/01/20 12:45:41;;;;;;;9.10;4.60;;;4.20;99.90;;;;;;5132452;27;20563;-64
2024/01/20 12:48:09;;;;;;;6.57;3.77;;;4.20;99.90;;;;;;5132471;27;20241;-66
2024/01/20 12:50:39;;;;;;;7.80;4.53;;;4.10;99.90;;;;;;5132704;27;20213;-62
2024/01/20 12:53:08;;;;;;;8.77;4.87;;;4.10;99.90;;;;;;5132366;27;20199;-62
2024/01/20 12:55:36;;;;;;;8.73;4.70;;;4.10;99.90;;;;;;5131629;27;20207;-65
2024/01/20 12:58:05;;;;;;;7.63;4.40;;;4.00;99.90;;;;;;5113479;27;21119;-63
2024/01/20 13:00:33;;;;;;;9.77;4.87;;;4.10;99.90;;;;;;5132064;27;20720;-61
2024/01/20 13:03:03;;;;;;;4.97;3.47;;;4.10;99.90;;;;;;5048027;28;20278;-66
2024/01/20 13:05:32;;;;;;;5.40;3.53;;;4.00;99.90;;;;;;5048452;28;20237;-65